createdAt,value
2018-04-06T00:00:18.946Z,29.23
2018-04-06T00:02:52.795Z,29.21
2018-04-06T00:05:24.789Z,29.25
2018-04-06T00:07:56.509Z,29.24
2018-04-06T00:10:29.530Z,29.26
2018-04-06T00:13:02.323Z,29.30
2018-04-06T00:15:35.340Z,29.26
2018-04-06T00:18:09.306Z,29.23
2018-04-06T00:20:41.248Z,29.20
2018-04-06T00:23:16.338Z,29.22
2018-04-06T00:25:46.855Z,29.24
2018-04-06T00:28:18.581Z,29.27
2018-04-06T00:30:50.336Z,29.31
2018-04-06T00:33:22.063Z,29.31
2018-04-06T00:35:53.973Z,29.35
2018-04-06T00:38:26.920Z,29.35
2018-04-06T00:40:59.109Z,29.32
2018-04-06T00:43:32.355Z,29.35
2018-04-06T00:46:05.340Z,29.39
2018-04-06T00:48:35.877Z,29.40
2018-04-06T00:51:07.526Z,29.42
2018-04-06T00:53:51.108Z,29.41
2018-04-06T00:56:23.081Z,29.43
2018-04-06T00:58:54.874Z,29.47
2018-04-06T01:01:27.090Z,29.47
2018-04-06T01:03:59.283Z,29.48
2018-04-06T01:06:32.439Z,29.50
2018-04-06T01:09:05.774Z,29.49
2018-04-06T01:11:38.283Z,29.52
2018-04-06T01:14:10.345Z,29.53
2018-04-06T01:16:40.915Z,29.56
2018-04-06T01:19:12.978Z,29.59
2018-04-06T01:21:45.887Z,29.59
2018-04-06T01:24:17.943Z,29.59
2018-04-06T01:26:50.862Z,29.59
2018-04-06T01:29:23.530Z,29.60
2018-04-06T01:31:55.411Z,29.60
2018-04-06T01:34:26.709Z,29.63
2018-04-06T01:37:00.362Z,29.63
2018-04-06T01:39:32.382Z,29.64
2018-04-06T01:42:02.913Z,29.89
2018-04-06T01:44:34.556Z,29.14
2018-04-06T01:47:06.376Z,29.17
2018-04-06T01:49:38.365Z,29.42
2018-04-06T01:52:08.882Z,29.53
2018-04-06T01:54:40.852Z,29.82
2018-04-06T01:57:12.876Z,29.93
2018-04-06T01:59:44.884Z,30.04
2018-04-06T02:02:16.614Z,30.34
2018-04-06T02:04:48.542Z,30.39
2018-04-06T02:07:20.380Z,30.43
2018-04-06T02:09:51.885Z,30.47
2018-04-06T02:12:23.545Z,30.44
2018-04-06T02:14:55.438Z,30.55
2018-04-06T02:17:25.880Z,30.65
2018-04-06T02:19:57.554Z,30.77
2018-04-06T02:22:29.366Z,31.01
2018-04-06T02:24:59.908Z,31.08
2018-04-06T02:27:31.850Z,31.12
2018-04-06T02:30:04.955Z,31.11
2018-04-06T02:32:37.150Z,31.12
2018-04-06T02:35:09.372Z,31.06
2018-04-06T02:37:41.276Z,31.07
2018-04-06T02:40:13.017Z,31.10
2018-04-06T02:42:45.135Z,31.15
2018-04-06T02:45:19.672Z,31.20
2018-04-06T02:47:52.570Z,31.30
2018-04-06T02:50:24.559Z,31.30
2018-04-06T02:52:56.449Z,31.36
2018-04-06T02:55:26.920Z,31.49
2018-04-06T02:57:58.837Z,31.45
2018-04-06T03:00:30.814Z,31.49
2018-04-06T03:03:02.585Z,31.51
2018-04-06T03:05:35.464Z,31.55
2018-04-06T03:08:06.872Z,31.67
2018-04-06T03:10:40.295Z,31.62
2018-04-06T03:13:12.930Z,31.57
2018-04-06T03:15:45.998Z,31.69
2018-04-06T03:18:21.369Z,31.78
2018-04-06T03:20:53.378Z,31.85
2018-04-06T03:23:23.899Z,31.96
2018-04-06T03:25:55.569Z,32.04
2018-04-06T03:28:27.380Z,32.11
2018-04-06T03:30:59.148Z,32.17
2018-04-06T03:33:31.811Z,32.50
2018-04-06T03:36:04.714Z,32.56
2018-04-06T03:38:36.386Z,32.72
2018-04-06T03:41:08.916Z,32.95
2018-04-06T03:43:40.556Z,32.95
2018-04-06T03:46:13.289Z,33.24
2018-04-06T03:48:44.990Z,33.89
2018-04-06T03:51:16.888Z,33.73
2018-04-06T03:53:48.896Z,33.72
2018-04-06T03:56:20.610Z,34.45
2018-04-06T03:58:52.298Z,34.29
2018-04-06T04:01:24.128Z,34.48
2018-04-06T04:03:56.041Z,34.50
2018-04-06T04:06:28.134Z,34.84
2018-04-06T04:09:00.164Z,34.93
2018-04-06T04:11:32.121Z,35.00
2018-04-06T04:14:05.048Z,35.07
2018-04-06T04:16:37.332Z,35.15
2018-04-06T04:19:09.188Z,35.19
2018-04-06T04:21:41.050Z,35.28
2018-04-06T04:24:14.178Z,35.31
2018-04-06T04:26:46.982Z,35.31
2018-04-06T04:29:18.611Z,35.41
2018-04-06T04:31:50.407Z,35.45
2018-04-06T04:34:20.978Z,35.46
2018-04-06T04:36:52.739Z,35.52
2018-04-06T04:39:24.412Z,35.56
2018-04-06T04:41:55.955Z,35.56
2018-04-06T04:44:27.608Z,35.61
2018-04-06T04:47:05.600Z,35.64
2018-04-06T04:49:37.406Z,35.66
2018-04-06T04:52:08.003Z,35.73
2018-04-06T04:54:39.868Z,35.74
2018-04-06T04:57:11.850Z,35.78
2018-04-06T04:59:43.596Z,35.82
2018-04-06T05:02:15.419Z,35.85
2018-04-06T05:04:45.922Z,35.90
2018-04-06T05:07:17.610Z,35.89
2018-04-06T05:09:49.473Z,35.96
2018-04-06T05:12:19.948Z,36.00
2018-04-06T05:14:51.904Z,36.01
2018-04-06T05:17:23.653Z,36.07
2018-04-06T05:19:55.654Z,36.01
2018-04-06T05:22:28.501Z,36.08
2018-04-06T05:24:59.149Z,36.14
2018-04-06T05:27:31.053Z,36.21
2018-04-06T05:30:03.336Z,36.28
2018-04-06T05:32:35.030Z,36.32
2018-04-06T05:35:07.156Z,36.35
2018-04-06T05:37:39.202Z,36.39
2018-04-06T05:40:11.340Z,36.39
2018-04-06T05:42:41.960Z,36.44
2018-04-06T05:45:13.853Z,36.48
2018-04-06T05:47:45.623Z,36.50
2018-04-06T05:50:17.439Z,36.48
2018-04-06T05:52:47.977Z,36.53
2018-04-06T05:55:19.849Z,36.58
2018-04-06T05:57:51.542Z,36.60
2018-04-06T06:00:23.433Z,36.62
2018-04-06T06:02:55.441Z,36.66
2018-04-06T06:05:26.045Z,36.70
2018-04-06T06:07:58.049Z,36.73
2018-04-06T06:10:30.182Z,36.75
2018-04-06T06:13:02.106Z,36.77
2018-04-06T06:15:34.061Z,36.80
2018-04-06T06:18:06.056Z,36.84
2018-04-06T06:20:37.859Z,36.85
2018-04-06T06:23:10.477Z,36.86
2018-04-06T06:25:40.980Z,36.89
2018-04-06T06:28:12.626Z,36.90
2018-04-06T06:30:44.454Z,36.94
2018-04-06T06:33:16.335Z,37.00
2018-04-06T06:35:48.348Z,37.02
2018-04-06T06:38:20.089Z,37.05
2018-04-06T06:40:52.198Z,37.07
2018-04-06T06:43:24.194Z,37.11
2018-04-06T06:45:56.097Z,37.16
2018-04-06T06:48:28.385Z,37.15
2018-04-06T06:51:00.146Z,37.17
2018-04-06T06:53:32.187Z,37.16
2018-04-06T06:58:44.368Z,37.41
2018-04-06T07:01:16.062Z,37.36
2018-04-06T07:03:48.092Z,37.37
2018-04-06T07:06:20.225Z,37.37
2018-04-06T07:09:15.970Z,37.60
2018-04-06T07:11:47.638Z,37.95
2018-04-06T07:14:19.447Z,37.83
2018-04-06T07:16:51.074Z,37.85
2018-04-06T07:19:23.086Z,37.88
2018-04-06T07:21:56.100Z,37.90
2018-04-06T07:24:28.418Z,37.93
2018-04-06T07:27:00.223Z,37.91
2018-04-06T07:29:32.224Z,37.89
2018-04-06T07:32:03.951Z,37.92
2018-04-06T07:34:35.963Z,37.90
2018-04-06T07:37:06.880Z,37.96
2018-04-06T07:39:38.763Z,37.96
2018-04-06T07:42:10.404Z,37.99
2018-04-06T07:44:42.102Z,38.06
2018-04-06T07:47:14.207Z,38.06
2018-04-06T07:49:45.867Z,38.01
2018-04-06T07:52:17.537Z,38.09
2018-04-06T07:54:49.533Z,38.13
2018-04-06T07:57:22.042Z,38.12
2018-04-06T07:59:53.969Z,38.15
2018-04-06T08:02:26.237Z,38.25
2018-04-06T08:04:59.043Z,38.22
2018-04-06T08:07:32.100Z,38.26
2018-04-06T08:10:04.512Z,38.28
2018-04-06T08:12:36.899Z,38.28
2018-04-06T08:15:09.664Z,38.32
2018-04-06T08:17:42.184Z,38.39
2018-04-06T08:20:14.962Z,38.34
2018-04-06T08:22:47.812Z,38.38
2018-04-06T08:25:20.845Z,38.47
2018-04-06T08:27:53.780Z,38.50
2018-04-06T08:30:26.461Z,38.53
2018-04-06T08:32:59.108Z,38.53
2018-04-06T08:35:32.094Z,38.55
2018-04-06T08:38:04.768Z,38.59
2018-04-06T08:40:36.500Z,38.57
2018-04-06T08:43:09.267Z,38.59
2018-04-06T08:45:41.976Z,38.57
2018-04-06T08:49:45.535Z,38.58
2018-04-06T08:52:18.090Z,38.59
2018-04-06T08:54:51.076Z,38.57
2018-04-06T08:57:23.447Z,38.63
2018-04-06T08:59:56.466Z,38.65
2018-04-06T09:02:30.036Z,38.63
2018-04-06T09:05:02.968Z,38.65
2018-04-06T09:07:35.857Z,38.64
2018-04-06T09:10:08.990Z,38.60
2018-04-06T09:12:42.485Z,38.70
2018-04-06T09:15:14.556Z,38.72
2018-04-06T09:17:48.464Z,38.75
2018-04-06T09:20:21.259Z,38.74
2018-04-06T09:22:53.960Z,38.75
2018-04-06T09:25:27.275Z,38.78
2018-04-06T09:27:59.960Z,38.75
2018-04-06T09:30:32.934Z,38.82
2018-04-06T09:33:05.966Z,38.86
2018-04-06T09:35:39.254Z,38.88
2018-04-06T09:38:12.299Z,38.87
2018-04-06T09:40:44.901Z,38.88
2018-04-06T09:43:17.240Z,38.80
2018-04-06T09:45:50.361Z,38.89
2018-04-06T09:48:22.981Z,38.91
2018-04-06T09:50:56.205Z,38.88
2018-04-06T09:53:29.137Z,38.86
2018-04-06T09:58:44.298Z,39.03
2018-04-06T10:01:16.569Z,38.96
2018-04-06T10:03:49.085Z,38.93
2018-04-06T10:06:21.997Z,38.94
2018-04-06T10:08:54.210Z,38.93
2018-04-06T10:11:26.880Z,38.98
2018-04-06T10:14:00.478Z,39.04
2018-04-06T10:16:32.856Z,38.98
2018-04-06T10:19:06.004Z,39.03
2018-04-06T10:21:38.947Z,39.01
2018-04-06T10:24:11.578Z,39.00
2018-04-06T10:26:44.667Z,38.98
2018-04-06T10:29:17.262Z,38.97
2018-04-06T10:31:50.641Z,38.93
2018-04-06T10:34:23.974Z,38.96
2018-04-06T10:36:57.119Z,38.96
2018-04-06T10:39:29.482Z,38.96
2018-04-06T10:42:02.302Z,38.96
2018-04-06T10:44:35.297Z,38.93
2018-04-06T10:47:08.297Z,38.92
2018-04-06T10:49:41.288Z,38.91
2018-04-06T10:52:14.159Z,38.90
2018-04-06T10:54:47.146Z,38.90
2018-04-06T10:57:20.459Z,38.92
2018-04-06T10:59:54.420Z,38.94
2018-04-06T11:02:27.573Z,38.90
2018-04-06T11:05:00.543Z,38.92
2018-04-06T11:07:33.156Z,38.87
2018-04-06T11:10:06.030Z,38.92
2018-04-06T11:12:38.995Z,38.93
2018-04-06T11:15:12.157Z,38.92
2018-04-06T11:17:44.963Z,38.90
2018-04-06T11:20:18.034Z,38.92
2018-04-06T11:22:50.956Z,38.96
2018-04-06T11:25:23.513Z,38.96
2018-04-06T11:27:56.282Z,39.04
2018-04-06T11:30:29.100Z,39.01
2018-04-06T11:33:02.304Z,39.01
2018-04-06T11:35:34.478Z,39.02
2018-04-06T11:38:08.594Z,39.07
2018-04-06T11:40:41.746Z,39.11
2018-04-06T11:43:14.873Z,39.17
2018-04-06T11:45:48.848Z,39.11
2018-04-06T11:50:13.071Z,39.16
2018-04-06T11:52:45.594Z,39.18
2018-04-06T11:55:18.501Z,39.16
2018-04-06T11:57:51.456Z,39.20
2018-04-06T12:00:24.548Z,39.28
2018-04-06T12:02:57.710Z,39.24
2018-04-06T12:05:30.494Z,39.32
2018-04-06T12:08:03.742Z,39.35
2018-04-06T12:10:37.387Z,39.38
2018-04-06T12:13:10.774Z,39.38
2018-04-06T12:15:42.695Z,39.42
2018-04-06T12:18:16.544Z,39.41
2018-04-06T12:20:49.126Z,39.48
2018-04-06T12:23:22.644Z,39.46
2018-04-06T12:25:55.886Z,39.47
2018-04-06T12:28:29.545Z,39.51
2018-04-06T12:31:02.545Z,39.60
2018-04-06T12:33:34.609Z,39.63
2018-04-06T12:36:08.023Z,39.62
2018-04-06T12:38:40.486Z,39.65
2018-04-06T12:41:13.814Z,39.72
2018-04-06T12:43:46.609Z,39.73
2018-04-06T12:46:19.178Z,39.81
2018-04-06T12:48:52.100Z,39.86
2018-04-06T12:51:25.018Z,39.99
2018-04-06T12:53:58.026Z,40.04
2018-04-06T12:56:30.554Z,40.13
2018-04-06T12:59:03.413Z,40.19
2018-04-06T13:01:35.976Z,40.20
2018-04-06T13:05:57.615Z,40.33
2018-04-06T13:08:30.215Z,40.39
2018-04-06T13:11:02.886Z,40.40
2018-04-06T13:13:36.014Z,40.54
2018-04-06T13:16:08.853Z,40.66
2018-04-06T13:18:41.543Z,40.70
2018-04-06T13:21:14.317Z,40.74
2018-04-06T13:23:47.339Z,40.77
2018-04-06T13:26:19.964Z,40.79
2018-04-06T13:28:53.549Z,40.84
2018-04-06T13:31:26.314Z,40.91
2018-04-06T13:33:59.022Z,40.86
2018-04-06T13:36:32.411Z,40.94
2018-04-06T13:39:05.324Z,40.99
2018-04-06T13:41:38.329Z,41.10
2018-04-06T13:44:10.622Z,41.14
2018-04-06T13:46:44.200Z,41.14
2018-04-06T13:49:17.309Z,41.18
2018-04-06T13:51:50.324Z,41.26
2018-04-06T13:54:23.353Z,41.29
2018-04-06T13:56:56.165Z,41.36
2018-04-06T13:59:28.506Z,41.32
2018-04-06T14:02:01.013Z,41.41
2018-04-06T14:04:34.486Z,41.39
2018-04-06T14:07:06.876Z,41.41
2018-04-06T14:09:39.626Z,41.45
2018-04-06T14:12:12.238Z,41.47
2018-04-06T14:14:45.497Z,41.55
2018-04-06T14:17:17.891Z,41.53
2018-04-06T14:19:50.906Z,41.57
2018-04-06T14:22:23.209Z,41.58
2018-04-06T14:24:56.521Z,41.61
2018-04-06T14:27:29.509Z,41.67
2018-04-06T14:30:01.816Z,41.71
2018-04-06T14:32:34.509Z,41.79
2018-04-06T14:35:07.160Z,41.87
2018-04-06T14:37:39.694Z,41.91
2018-04-06T14:40:12.189Z,42.06
2018-04-06T14:42:44.958Z,42.02
2018-04-06T14:45:17.526Z,42.09
2018-04-06T14:47:50.358Z,42.15
2018-04-06T14:50:23.049Z,42.12
2018-04-06T14:52:56.003Z,42.15
2018-04-06T14:55:28.524Z,42.21
2018-04-06T14:58:00.990Z,42.19
2018-04-06T15:00:34.551Z,42.25
2018-04-06T15:03:08.502Z,42.42
2018-04-06T15:05:41.438Z,42.42
2018-04-06T15:08:14.325Z,42.45
2018-04-06T15:10:47.383Z,42.53
2018-04-06T15:13:20.381Z,42.62
2018-04-06T15:15:53.377Z,42.64
2018-04-06T15:18:25.665Z,42.65
2018-04-06T15:20:58.067Z,42.70
2018-04-06T15:23:30.557Z,42.74
2018-04-06T15:26:03.045Z,42.75
2018-04-06T15:28:36.059Z,42.81
2018-04-06T15:31:08.575Z,42.80
2018-04-06T15:33:42.057Z,42.75
2018-04-06T15:36:15.070Z,42.75
2018-04-06T15:38:47.546Z,42.76
2018-04-06T15:41:19.757Z,42.77
2018-04-06T15:43:52.541Z,42.72
2018-04-06T15:46:25.438Z,42.68
2018-04-06T15:48:58.082Z,42.65
2018-04-06T15:51:30.569Z,42.57
2018-04-06T15:54:03.550Z,42.56
2018-04-06T15:56:36.566Z,42.69
2018-04-06T15:59:09.544Z,42.93
2018-04-06T16:01:43.104Z,43.09
2018-04-06T16:04:16.034Z,43.01
2018-04-06T16:06:48.951Z,43.00
2018-04-06T16:09:21.661Z,42.96
2018-04-06T16:11:54.294Z,42.92
2018-04-06T16:14:26.689Z,42.87
2018-04-06T16:16:59.899Z,42.88
2018-04-06T16:19:32.667Z,42.83
2018-04-06T16:22:05.172Z,42.80
2018-04-06T16:24:38.559Z,42.72
2018-04-06T16:27:11.540Z,42.66
2018-04-06T16:29:44.176Z,42.63
2018-04-06T16:32:16.539Z,42.50
2018-04-06T16:34:49.162Z,42.49
2018-04-06T16:37:22.545Z,42.44
2018-04-06T16:39:56.244Z,42.39
2018-04-06T16:42:29.365Z,42.31
2018-04-06T16:45:01.150Z,42.28
2018-04-06T16:47:32.667Z,42.25
2018-04-06T16:50:04.467Z,42.25
2018-04-06T16:52:36.075Z,42.22
2018-04-06T16:55:45.068Z,42.23
2018-04-06T16:58:16.635Z,42.11
2018-04-06T17:00:48.167Z,42.03
2018-04-06T17:03:19.675Z,42.02
2018-04-06T17:05:51.550Z,41.95
2018-04-06T17:08:23.582Z,41.87
2018-04-06T17:10:55.470Z,41.80
2018-04-06T17:13:27.091Z,41.81
2018-04-06T17:15:58.685Z,41.67
2018-04-06T17:18:31.136Z,41.79
2018-04-06T17:21:02.799Z,41.61
2018-04-06T17:23:34.558Z,41.50
2018-04-06T17:26:06.168Z,41.53
2018-04-06T17:28:37.683Z,41.52
2018-04-06T17:31:09.548Z,41.47
2018-04-06T17:33:41.169Z,41.51
2018-04-06T17:39:10.390Z,41.53
2018-04-06T17:41:42.069Z,41.41
2018-04-06T17:44:13.685Z,41.33
2018-04-06T17:46:45.191Z,41.26
2018-04-06T17:49:16.770Z,41.24
2018-04-06T17:51:48.647Z,41.20
2018-04-06T17:54:20.540Z,41.18
2018-04-06T17:56:52.069Z,41.15
2018-04-06T17:59:24.077Z,41.08
2018-04-06T18:01:55.473Z,41.01
2018-04-06T18:04:27.102Z,40.94
2018-04-06T18:06:58.731Z,40.93
2018-04-06T18:09:30.622Z,40.90
2018-04-06T18:12:02.426Z,40.93
2018-04-06T18:14:35.095Z,40.92
2018-04-06T18:17:07.122Z,40.89
2018-04-06T18:19:39.086Z,40.84
2018-04-06T18:22:10.701Z,40.82
2018-04-06T18:24:42.266Z,40.81
2018-04-06T18:27:14.191Z,40.79
2018-04-06T18:29:46.430Z,40.72
2018-04-06T18:32:18.112Z,40.66
2018-04-06T18:34:51.256Z,40.61
2018-04-06T18:39:22.573Z,40.44
2018-04-06T18:43:08.572Z,40.38
2018-04-06T18:45:40.805Z,40.38
2018-04-06T18:48:12.599Z,40.32
2018-04-06T18:50:44.588Z,40.22
2018-04-06T18:53:16.561Z,40.12
2018-04-06T18:55:48.257Z,40.09
2018-04-06T18:58:19.701Z,40.07
2018-04-06T19:00:52.576Z,40.03
2018-04-06T19:04:04.578Z,40.09
2018-04-06T19:06:36.149Z,40.01
2018-04-06T19:09:10.416Z,39.92
2018-04-06T19:11:43.194Z,39.87
2018-04-06T19:14:16.095Z,39.82
2018-04-06T19:16:48.345Z,39.69
2018-04-06T19:19:21.387Z,39.66
2018-04-06T19:21:54.740Z,39.64
2018-04-06T19:24:27.592Z,39.60
2018-04-06T19:27:00.072Z,39.54
2018-04-06T19:29:32.990Z,39.45
2018-04-06T19:32:06.033Z,39.39
2018-04-06T19:34:39.132Z,39.37
2018-04-06T19:37:12.042Z,39.36
2018-04-06T19:39:45.603Z,39.39
2018-04-06T19:42:18.138Z,39.38
2018-04-06T19:44:51.292Z,39.35
2018-04-06T19:47:24.298Z,39.37
2018-04-06T19:49:57.150Z,39.28
2018-04-06T19:53:03.238Z,39.29
2018-04-06T19:55:36.057Z,39.27
2018-04-06T19:58:08.516Z,39.23
2018-04-06T20:00:41.142Z,39.21
2018-04-06T20:03:13.321Z,39.16
2018-04-06T20:05:46.148Z,39.19
2018-04-06T20:08:19.167Z,39.14
2018-04-06T20:10:52.127Z,39.13
2018-04-06T20:13:25.155Z,39.11
2018-04-06T20:15:58.124Z,39.11
2018-04-06T20:18:30.358Z,39.08
2018-04-06T20:21:03.113Z,39.06
2018-04-06T20:23:35.670Z,39.06
2018-04-06T20:26:07.729Z,39.03
2018-04-06T20:28:40.516Z,39.01
2018-04-06T20:31:13.244Z,39.06
2018-04-06T20:33:46.121Z,39.03
2018-04-06T20:36:19.254Z,38.82
2018-04-06T20:38:52.305Z,38.79
2018-04-06T20:41:25.178Z,38.71
2018-04-06T20:43:57.971Z,38.68
2018-04-06T20:46:30.371Z,38.63
2018-04-06T20:49:02.619Z,38.48
2018-04-06T20:51:35.452Z,38.39
2018-04-06T20:54:09.160Z,38.42
2018-04-06T20:56:42.040Z,38.40
2018-04-06T20:59:15.431Z,38.41
2018-04-06T21:01:48.802Z,38.38
2018-04-06T21:04:21.429Z,38.35
2018-04-06T21:06:54.139Z,38.40
2018-04-06T21:09:27.617Z,38.40
2018-04-06T21:12:00.166Z,38.45
2018-04-06T21:14:33.176Z,38.40
2018-04-06T21:17:06.269Z,38.31
2018-04-06T21:19:39.151Z,38.36
2018-04-06T21:22:12.283Z,38.48
2018-04-06T21:24:45.144Z,38.35
2018-04-06T21:27:18.132Z,38.39
2018-04-06T21:29:51.155Z,38.47
2018-04-06T21:32:23.617Z,38.33
2018-04-06T21:34:56.110Z,38.24
2018-04-06T21:37:28.982Z,38.12
2018-04-06T21:40:02.241Z,38.17
2018-04-06T21:42:34.970Z,38.09
2018-04-06T21:45:07.853Z,38.00
2018-04-06T21:47:41.518Z,38.00
2018-04-06T21:50:13.774Z,38.05
2018-04-06T21:52:46.469Z,38.10
2018-04-06T21:55:19.073Z,38.06
2018-04-06T21:57:51.175Z,38.07
2018-04-06T22:00:24.247Z,38.06
2018-04-06T22:02:57.332Z,38.06
2018-04-06T22:05:30.346Z,38.11
2018-04-06T22:08:04.291Z,38.11
2018-04-06T22:10:36.320Z,38.12
2018-04-06T22:13:08.758Z,38.15
2018-04-06T22:15:41.263Z,38.19
2018-04-06T22:18:14.464Z,38.19
2018-04-06T22:20:46.642Z,38.19
2018-04-06T22:23:19.191Z,38.21
2018-04-06T22:25:51.761Z,38.25
2018-04-06T22:28:24.658Z,38.21
2018-04-06T22:30:57.487Z,38.24
2018-04-06T22:33:29.770Z,38.17
2018-04-06T22:36:02.504Z,38.23
2018-04-06T22:38:34.704Z,38.28
2018-04-06T22:41:07.291Z,38.30
2018-04-06T22:43:39.656Z,38.26
2018-04-06T22:46:12.236Z,38.23
2018-04-06T22:48:44.640Z,38.26
2018-04-06T22:51:18.720Z,38.30
2018-04-06T22:53:51.509Z,38.33
2018-04-06T22:56:24.852Z,38.39
2018-04-06T22:58:58.328Z,38.44
2018-04-06T23:01:31.156Z,38.47
2018-04-06T23:04:05.659Z,38.51
2018-04-06T23:06:39.182Z,38.51
2018-04-06T23:09:12.272Z,38.52
2018-04-06T23:11:44.680Z,38.53
2018-04-06T23:14:17.346Z,38.58
2018-04-06T23:16:50.713Z,38.57
2018-04-06T23:19:23.331Z,38.57
2018-04-06T23:21:56.165Z,38.59
2018-04-06T23:24:29.326Z,38.65
2018-04-06T23:27:01.939Z,38.69
2018-04-06T23:29:34.664Z,38.69
2018-04-06T23:32:07.766Z,38.71
2018-04-06T23:34:40.659Z,38.73
2018-04-06T23:37:13.526Z,38.72
2018-04-06T23:39:46.203Z,38.77
2018-04-06T23:42:19.065Z,38.79
2018-04-06T23:44:51.780Z,38.84
2018-04-06T23:47:24.699Z,38.84
2018-04-06T23:49:57.499Z,38.89
2018-04-06T23:52:30.200Z,38.90
2018-04-06T23:55:03.217Z,38.93
2018-04-06T23:57:36.735Z,38.92
